Time;durP1;ratioP1;P1;durP2;ratioP2;P2;SDS_P1;SDS_P2;PMS_P1;PMS_P2;Temp;Humidity;BMP_temperature;BMP_pressure;BME280_temperature;BME280_humidity;BME280_pressure;Samples;Min_cycle;Max_cycle;Signal;HPM_P1;HPM_P2
2023/06/04 00:01:44;;;;;;;9.77;8.77;;;17.00;1.00;;;;;;5118248;28;20226;-50
2023/06/04 00:04:10;;;;;;;9.90;9.00;;;17.10;1.00;;;;;;5116220;28;20512;-48
2023/06/04 00:06:36;;;;;;;10.10;9.10;;;17.10;1.00;;;;;;5118336;28;20434;-48
2023/06/04 00:09:01;;;;;;;10.43;9.43;;;17.10;1.00;;;;;;5118618;28;20247;-46
2023/06/04 00:11:27;;;;;;;10.63;9.63;;;17.10;1.00;;;;;;5118382;28;20826;-48
2023/06/04 00:13:53;;;;;;;10.77;9.87;;;17.10;1.00;;;;;;5118138;28;20180;-48
2023/06/04 00:16:18;;;;;;;11.00;9.80;;;17.10;1.00;;;;;;5118539;28;20191;-48
2023/06/04 00:18:44;;;;;;;9.63;8.73;;;17.10;1.00;;;;;;5118179;28;20192;-46
2023/06/04 00:21:09;;;;;;;10.37;9.43;;;17.10;1.00;;;;;;5116235;28;20196;-49
2023/06/04 00:23:35;;;;;;;12.03;9.83;;;17.10;1.00;;;;;;5116617;28;20184;-47
2023/06/04 00:26:00;;;;;;;11.23;9.40;;;17.10;1.00;;;;;;5117024;28;20568;-47
2023/06/04 00:28:26;;;;;;;10.63;9.20;;;17.00;1.00;;;;;;5118063;28;20242;-48
2023/06/04 00:30:52;;;;;;;10.37;9.37;;;17.00;1.00;;;;;;5116250;28;20576;-48
2023/06/04 00:33:17;;;;;;;9.20;8.40;;;17.00;1.00;;;;;;5113464;28;20198;-49
2023/06/04 00:35:43;;;;;;;9.97;9.07;;;17.00;1.00;;;;;;5114217;28;20191;-48
2023/06/04 00:38:10;;;;;;;9.93;8.93;;;17.00;1.00;;;;;;5115964;28;20188;-50
2023/06/04 00:40:35;;;;;;;9.80;8.90;;;17.00;1.00;;;;;;5116409;28;20264;-48
2023/06/04 00:43:01;;;;;;;9.30;8.50;;;17.00;1.00;;;;;;5117936;28;20489;-51
2023/06/04 00:45:26;;;;;;;10.37;9.30;;;16.80;1.00;;;;;;5117128;28;20207;-48
2023/06/04 00:47:52;;;;;;;9.97;8.97;;;16.80;1.00;;;;;;5118395;28;20570;-46
2023/06/04 00:50:20;;;;;;;9.60;8.70;;;16.80;1.00;;;;;;5118715;28;20528;-48
2023/06/04 00:52:47;;;;;;;11.67;8.57;;;16.70;1.00;;;;;;5118338;28;20505;-48
2023/06/04 00:55:12;;;;;;;9.73;8.90;;;16.70;1.00;;;;;;5117804;28;20881;-48
2023/06/04 00:57:38;;;;;;;9.07;8.17;;;16.70;1.00;;;;;;5118205;28;20473;-49
2023/06/04 01:00:06;;;;;;;10.37;9.37;;;16.70;1.00;;;;;;5117375;28;20287;-49
2023/06/04 01:02:33;;;;;;;10.67;9.33;;;16.60;1.00;;;;;;5118246;28;20714;-49
2023/06/04 01:05:09;;;;;;;10.20;9.30;;;16.50;1.00;;;;;;5115602;28;20426;-48
2023/06/04 01:07:36;;;;;;;10.60;9.60;;;16.40;1.00;;;;;;5115039;28;20449;-49
2023/06/04 01:10:02;;;;;;;9.50;8.60;;;16.40;1.00;;;;;;5115142;28;20440;-49
2023/06/04 01:12:28;;;;;;;10.73;9.73;;;16.30;1.00;;;;;;5113977;28;20752;-48
2023/06/04 01:14:54;;;;;;;9.63;8.80;;;16.30;1.00;;;;;;5115786;28;20468;-47
2023/06/04 01:17:37;;;;;;;10.13;9.13;;;16.40;1.00;;;;;;5099629;28;20218;-48
2023/06/04 01:20:21;;;;;;;10.40;9.40;;;16.40;1.00;;;;;;5115790;28;20257;-49
2023/06/04 01:23:01;;;;;;;10.00;9.20;;;16.30;1.00;;;;;;5116899;28;20583;-47
2023/06/04 01:25:30;;;;;;;10.27;9.27;;;16.20;1.00;;;;;;5117153;28;20417;-47
2023/06/04 01:28:00;;;;;;;11.10;9.90;;;16.20;1.00;;;;;;5117694;28;20465;-47
2023/06/04 01:30:31;;;;;;;11.13;9.93;;;16.20;1.00;;;;;;5099783;28;20497;-46
2023/06/04 01:32:57;;;;;;;10.57;9.50;;;16.20;1.00;;;;;;5117709;28;20506;-46
2023/06/04 01:35:26;;;;;;;10.40;9.30;;;16.20;1.00;;;;;;5116600;27;20434;-47
2023/06/04 01:37:52;;;;;;;9.53;8.70;;;16.10;1.00;;;;;;5117200;28;20787;-46
2023/06/04 01:40:18;;;;;;;9.00;8.20;;;16.10;1.00;;;;;;5116937;28;20430;-49
2023/06/04 01:42:44;;;;;;;10.27;9.17;;;16.10;1.00;;;;;;5115801;28;20556;-47
2023/06/04 01:45:10;;;;;;;10.40;9.40;;;16.10;1.00;;;;;;5116328;28;20878;-47
2023/06/04 01:47:36;;;;;;;9.83;8.93;;;16.10;1.00;;;;;;5116139;28;20418;-47
2023/06/04 01:50:02;;;;;;;9.87;8.93;;;16.20;1.00;;;;;;5095728;28;20824;-47
2023/06/04 01:52:28;;;;;;;10.27;9.37;;;16.20;1.00;;;;;;5113888;28;20180;-49
2023/06/04 01:54:54;;;;;;;10.47;9.57;;;16.20;1.00;;;;;;5116514;28;20613;-47
2023/06/04 01:57:21;;;;;;;9.13;8.33;;;16.20;1.00;;;;;;5116840;28;20184;-47
2023/06/04 01:59:46;;;;;;;10.23;9.23;;;16.30;1.00;;;;;;5116940;28;20441;-47
2023/06/04 02:02:12;;;;;;;12.93;10.10;;;16.20;1.00;;;;;;5116174;28;20808;-50
2023/06/04 02:04:41;;;;;;;9.30;8.50;;;16.20;1.00;;;;;;5115695;28;20182;-47
2023/06/04 02:07:08;;;;;;;10.60;9.50;;;16.10;1.00;;;;;;5115654;28;20448;-46
2023/06/04 02:09:34;;;;;;;9.30;8.50;;;16.10;1.00;;;;;;5115419;28;20763;-46
2023/06/04 02:12:00;;;;;;;10.67;9.67;;;16.00;1.00;;;;;;5115563;28;20429;-51
2023/06/04 02:14:26;;;;;;;10.60;9.60;;;16.00;1.00;;;;;;5116459;28;20456;-47
2023/06/04 02:16:53;;;;;;;9.73;8.83;;;15.90;1.00;;;;;;5116096;28;20210;-49
2023/06/04 02:19:20;;;;;;;10.97;9.97;;;15.80;1.00;;;;;;5114655;28;20203;-48
2023/06/04 02:21:46;;;;;;;10.70;9.47;;;15.90;1.00;;;;;;5115786;28;20422;-47
2023/06/04 02:24:12;;;;;;;10.73;9.50;;;15.90;1.00;;;;;;5116367;28;20768;-48
2023/06/04 02:26:38;;;;;;;11.30;9.27;;;15.90;1.00;;;;;;5116453;28;20520;-46
2023/06/04 02:29:03;;;;;;;9.83;8.93;;;15.90;1.00;;;;;;5116419;28;20457;-49
2023/06/04 02:31:30;;;;;;;9.40;8.17;;;15.80;1.00;;;;;;5097909;28;20436;-47
2023/06/04 02:33:56;;;;;;;10.90;9.80;;;15.80;1.00;;;;;;5115350;28;20619;-48
2023/06/04 02:36:22;;;;;;;9.80;8.90;;;15.80;1.00;;;;;;5115420;28;20447;-47
2023/06/04 02:38:47;;;;;;;10.40;9.47;;;15.90;1.00;;;;;;5118900;28;20268;-48
2023/06/04 02:41:13;;;;;;;10.37;9.40;;;15.90;1.00;;;;;;5119613;28;20191;-48
2023/06/04 02:43:38;;;;;;;9.67;8.80;;;15.90;1.00;;;;;;5119668;28;20232;-49
2023/06/04 02:46:06;;;;;;;10.00;9.03;;;15.80;1.00;;;;;;5120349;28;20191;-50
2023/06/04 02:48:31;;;;;;;10.53;9.53;;;15.80;1.00;;;;;;5121009;28;20300;-48
2023/06/04 02:50:57;;;;;;;9.70;8.70;;;15.80;1.00;;;;;;5121460;28;20525;-48
2023/06/04 02:53:23;;;;;;;10.53;9.53;;;15.90;1.00;;;;;;5121000;28;20296;-48
2023/06/04 02:55:50;;;;;;;11.20;10.07;;;15.90;1.00;;;;;;5120908;28;20226;-47
2023/06/04 02:58:16;;;;;;;9.73;8.83;;;15.90;1.00;;;;;;5102733;28;20448;-51
2023/06/04 03:00:42;;;;;;;9.83;8.93;;;15.80;1.00;;;;;;5120659;28;20777;-48
2023/06/04 03:03:07;;;;;;;10.00;9.00;;;15.70;1.00;;;;;;5120571;28;20260;-50
2023/06/04 03:05:33;;;;;;;10.00;9.10;;;15.60;1.00;;;;;;5120460;28;20175;-49
2023/06/04 03:08:02;;;;;;;11.30;10.27;;;15.50;1.00;;;;;;5120430;28;20222;-48
2023/06/04 03:10:27;;;;;;;10.37;9.20;;;15.50;1.00;;;;;;5120955;28;20457;-48
2023/06/04 03:12:53;;;;;;;10.03;8.60;;;15.20;1.00;;;;;;5120117;28;20437;-46
2023/06/04 03:15:19;;;;;;;10.80;9.80;;;15.10;1.00;;;;;;5119085;28;20583;-47
2023/06/04 03:17:44;;;;;;;10.27;9.37;;;14.90;1.00;;;;;;5119360;28;20206;-47
2023/06/04 03:20:10;;;;;;;10.37;8.90;;;14.80;1.00;;;;;;5118517;28;20469;-48
2023/06/04 03:22:36;;;;;;;10.53;9.50;;;14.70;26.10;;;;;;5118177;28;20253;-51
2023/06/04 03:25:03;;;;;;;10.40;9.20;;;14.70;59.50;;;;;;5118251;28;20816;-47
2023/06/04 03:27:30;;;;;;;10.37;9.30;;;14.70;48.00;;;;;;5118215;28;20194;-47
2023/06/04 03:29:55;;;;;;;9.50;8.50;;;14.80;27.10;;;;;;5118183;28;20803;-55
2023/06/04 03:32:21;;;;;;;9.47;8.57;;;14.80;50.70;;;;;;5116845;28;20437;-48
2023/06/04 03:34:46;;;;;;;9.67;8.77;;;14.90;57.00;;;;;;5117049;28;20192;-48
2023/06/04 03:37:12;;;;;;;11.03;8.80;;;15.00;33.90;;;;;;5117023;28;20191;-50
2023/06/04 03:39:38;;;;;;;9.67;8.77;;;15.10;11.70;;;;;;5099155;28;20573;-47
2023/06/04 03:42:04;;;;;;;9.57;8.67;;;15.10;6.90;;;;;;5116670;28;20236;-47
2023/06/04 03:44:30;;;;;;;10.63;9.53;;;15.20;1.00;;;;;;5117437;28;20195;-48
2023/06/04 03:46:56;;;;;;;8.37;7.67;;;15.30;1.00;;;;;;5117786;28;20451;-46
2023/06/04 03:49:21;;;;;;;9.03;8.23;;;15.30;1.00;;;;;;5117507;28;20227;-48
2023/06/04 03:51:47;;;;;;;8.80;8.00;;;15.40;1.00;;;;;;5119019;28;20247;-49
2023/06/04 03:54:16;;;;;;;9.60;8.60;;;15.40;1.00;;;;;;5119237;28;20199;-48
2023/06/04 03:56:43;;;;;;;9.47;8.63;;;15.40;1.00;;;;;;5118552;28;20516;-49
2023/06/04 03:59:08;;;;;;;9.10;8.30;;;15.40;1.00;;;;;;5119072;28;20480;-48
2023/06/04 04:01:34;;;;;;;10.27;9.27;;;15.40;1.00;;;;;;5118460;28;20833;-49
2023/06/04 04:04:00;;;;;;;9.63;8.73;;;15.20;1.00;;;;;;5118506;28;20500;-48
2023/06/04 04:06:25;;;;;;;9.90;9.00;;;15.10;1.00;;;;;;5119080;28;20199;-47
2023/06/04 04:08:51;;;;;;;11.33;9.87;;;15.10;1.00;;;;;;5118202;28;20207;-47
2023/06/04 04:11:17;;;;;;;9.90;9.00;;;15.00;1.00;;;;;;5117992;28;20196;-48
2023/06/04 04:13:45;;;;;;;10.37;9.30;;;15.00;1.00;;;;;;5117794;28;20191;-47
2023/06/04 04:16:10;;;;;;;8.70;8.00;;;14.80;19.40;;;;;;5117973;28;20540;-49
2023/06/04 04:18:36;;;;;;;8.53;7.73;;;14.70;50.90;;;;;;5118089;28;20504;-50
2023/06/04 04:21:03;;;;;;;8.60;7.80;;;14.80;87.90;;;;;;5118568;28;20287;-48
2023/06/04 04:23:31;;;;;;;10.40;8.47;;;14.90;34.40;;;;;;5118413;28;20477;-47
2023/06/04 04:25:58;;;;;;;9.50;8.60;;;15.10;22.60;;;;;;5118496;28;20429;-48
2023/06/04 04:28:28;;;;;;;8.50;7.73;;;15.20;1.00;;;;;;5118678;28;20477;-49
2023/06/04 04:30:56;;;;;;;9.57;8.27;;;15.30;1.00;;;;;;5118778;28;20680;-48
2023/06/04 04:33:24;;;;;;;9.17;8.27;;;15.40;1.00;;;;;;5100265;28;20414;-47
2023/06/04 04:35:50;;;;;;;9.20;8.30;;;15.50;1.00;;;;;;5118466;28;20444;-50
2023/06/04 04:38:17;;;;;;;10.20;9.07;;;15.60;1.00;;;;;;5118468;28;20421;-47
2023/06/04 04:40:42;;;;;;;8.50;7.70;;;15.70;1.00;;;;;;5118565;28;20421;-50
2023/06/04 04:43:08;;;;;;;8.23;7.50;;;15.80;1.00;;;;;;5117401;28;20491;-47
2023/06/04 04:45:34;;;;;;;9.30;8.43;;;15.90;1.00;;;;;;5116083;28;20543;-48
2023/06/04 04:47:59;;;;;;;8.50;7.70;;;16.00;1.00;;;;;;5116707;28;20222;-49
2023/06/04 04:50:25;;;;;;;9.53;8.53;;;16.00;1.00;;;;;;5114184;28;20595;-48
2023/06/04 04:52:50;;;;;;;8.97;8.17;;;16.10;1.00;;;;;;5114285;28;20423;-48
2023/06/04 04:55:16;;;;;;;8.67;7.73;;;16.10;1.00;;;;;;5115441;28;20278;-48
2023/06/04 04:57:41;;;;;;;8.63;7.90;;;16.10;1.00;;;;;;5115625;28;20195;-47
2023/06/04 05:00:09;;;;;;;9.27;8.47;;;16.20;1.00;;;;;;5113454;28;20282;-48
2023/06/04 05:02:37;;;;;;;9.00;8.20;;;16.30;1.00;;;;;;5116104;28;20187;-48
2023/06/04 05:05:03;;;;;;;9.57;8.77;;;16.40;1.00;;;;;;5117316;28;20429;-47
2023/06/04 05:07:29;;;;;;;9.97;8.87;;;16.40;1.00;;;;;;5117713;28;20456;-48
2023/06/04 05:09:55;;;;;;;10.60;9.07;;;16.40;1.00;;;;;;5117185;28;20425;-48
2023/06/04 05:12:21;;;;;;;10.23;8.70;;;16.50;1.00;;;;;;5117710;28;20406;-49
2023/06/04 05:14:46;;;;;;;8.93;8.13;;;16.50;1.00;;;;;;5117809;28;20202;-47
2023/06/04 05:17:12;;;;;;;7.23;6.53;;;16.50;1.00;;;;;;5117078;28;20232;-49
2023/06/04 05:19:38;;;;;;;8.60;7.80;;;16.50;1.00;;;;;;5115826;28;20270;-51
2023/06/04 05:22:04;;;;;;;8.40;7.60;;;16.60;1.00;;;;;;5116183;28;20555;-49
2023/06/04 05:24:31;;;;;;;8.43;7.17;;;16.60;1.00;;;;;;5115620;28;20341;-47
2023/06/04 05:26:57;;;;;;;7.63;6.73;;;16.70;1.00;;;;;;5117112;28;20188;-47
2023/06/04 05:29:23;;;;;;;8.40;7.27;;;16.70;1.00;;;;;;5117099;28;20480;-46
2023/06/04 05:31:49;;;;;;;6.53;5.80;;;16.90;1.00;;;;;;5117694;28;20216;-48
2023/06/04 05:34:16;;;;;;;5.40;4.97;;;16.90;1.00;;;;;;5117289;28;20528;-49
2023/06/04 05:36:42;;;;;;;5.77;5.27;;;17.00;1.00;;;;;;5117148;28;20413;-48
2023/06/04 05:39:09;;;;;;;5.37;4.77;;;17.00;1.00;;;;;;5117122;28;20691;-50
2023/06/04 05:41:35;;;;;;;6.20;4.73;;;17.20;1.00;;;;;;5116981;28;20433;-46
2023/06/04 05:44:01;;;;;;;4.57;4.07;;;17.20;1.00;;;;;;5117309;28;20440;-48
2023/06/04 05:46:27;;;;;;;4.63;4.13;;;17.30;1.00;;;;;;5117349;28;20446;-48
2023/06/04 05:48:53;;;;;;;4.47;3.87;;;17.20;1.00;;;;;;5117014;28;20840;-49
2023/06/04 05:51:19;;;;;;;3.93;3.63;;;17.20;1.00;;;;;;5078628;28;20539;-49
2023/06/04 05:53:45;;;;;;;5.70;4.33;;;17.30;1.00;;;;;;5114887;28;20728;-48
2023/06/04 05:56:11;;;;;;;4.73;4.00;;;17.40;1.00;;;;;;5115108;28;20516;-49
2023/06/04 05:58:37;;;;;;;5.47;3.80;;;17.60;1.00;;;;;;5097917;28;20429;-46
2023/06/04 06:01:03;;;;;;;4.67;3.90;;;17.70;1.00;;;;;;5116361;28;20294;-48
2023/06/04 06:03:28;;;;;;;4.00;3.70;;;17.90;1.00;;;;;;5115707;28;20454;-48
2023/06/04 06:05:57;;;;;;;4.27;3.87;;;18.00;1.00;;;;;;5116758;28;20549;-50
2023/06/04 06:08:22;;;;;;;5.17;4.00;;;18.10;1.00;;;;;;5097798;28;20608;-46
2023/06/04 06:10:56;;;;;;;3.67;3.20;;;18.20;1.00;;;;;;5113629;28;20475;-49
2023/06/04 06:13:25;;;;;;;3.90;3.07;;;18.40;1.00;;;;;;5112765;28;20192;-50
2023/06/04 06:15:52;;;;;;;6.37;3.60;;;18.60;1.00;;;;;;5113449;28;20823;-47
2023/06/04 06:18:18;;;;;;;3.77;3.37;;;18.80;1.00;;;;;;5113977;28;20821;-50
2023/06/04 06:20:44;;;;;;;4.00;3.17;;;18.90;1.00;;;;;;5096283;28;20534;-49
2023/06/04 06:23:09;;;;;;;4.33;3.93;;;19.00;1.00;;;;;;5114228;28;20200;-49
2023/06/04 06:25:35;;;;;;;3.83;3.43;;;19.10;1.00;;;;;;5114130;28;20183;-50
2023/06/04 06:28:00;;;;;;;8.00;3.80;;;19.30;1.00;;;;;;5114054;28;20238;-53
2023/06/04 06:30:26;;;;;;;5.50;3.70;;;19.40;1.00;;;;;;5115678;28;20248;-51
2023/06/04 06:32:53;;;;;;;4.83;3.70;;;19.40;1.00;;;;;;5117452;28;20188;-48
2023/06/04 06:35:19;;;;;;;3.77;3.40;;;19.40;1.00;;;;;;5116380;28;20428;-48
2023/06/04 06:37:44;;;;;;;3.73;3.43;;;19.50;1.00;;;;;;5115927;28;20426;-51
2023/06/04 06:40:10;;;;;;;5.90;3.57;;;19.70;1.00;;;;;;5115785;28;20550;-49
2023/06/04 06:42:36;;;;;;;6.43;4.67;;;19.90;1.00;;;;;;5115840;27;20247;-49
2023/06/04 06:45:02;;;;;;;4.40;3.50;;;20.00;1.00;;;;;;5095662;28;20709;-52
2023/06/04 06:47:28;;;;;;;5.30;4.30;;;20.00;1.00;;;;;;5077969;28;20196;-48
2023/06/04 06:49:54;;;;;;;5.40;4.00;;;20.10;1.00;;;;;;5114523;28;20569;-49
2023/06/04 06:52:20;;;;;;;4.20;3.60;;;20.20;1.00;;;;;;5114621;28;20187;-49
2023/06/04 06:54:46;;;;;;;5.33;3.73;;;20.10;1.00;;;;;;5114481;28;20425;-48
2023/06/04 06:57:12;;;;;;;4.30;3.50;;;20.10;1.00;;;;;;5113949;28;20403;-49
2023/06/04 06:59:37;;;;;;;3.87;3.43;;;20.10;1.00;;;;;;5114662;28;20756;-48
2023/06/04 07:02:04;;;;;;;5.47;3.87;;;20.10;1.00;;;;;;5115089;28;20437;-47
2023/06/04 07:04:30;;;;;;;6.40;3.87;;;20.30;1.00;;;;;;5115257;28;20184;-49
2023/06/04 07:06:56;;;;;;;7.73;4.20;;;20.40;1.00;;;;;;5114753;28;20719;-48
2023/06/04 07:09:22;;;;;;;3.53;3.23;;;20.40;1.00;;;;;;5113880;28;20211;-48
2023/06/04 07:11:48;;;;;;;5.90;3.93;;;20.50;1.00;;;;;;5079474;28;20476;-47
2023/06/04 07:14:14;;;;;;;4.37;3.53;;;20.60;1.00;;;;;;5097664;28;20552;-47
2023/06/04 07:16:40;;;;;;;4.87;4.17;;;21.00;1.00;;;;;;5115728;28;20308;-49
2023/06/04 07:19:05;;;;;;;3.73;3.30;;;21.30;1.00;;;;;;5097936;28;20870;-50
2023/06/04 07:21:31;;;;;;;3.73;3.30;;;21.60;1.00;;;;;;5079837;28;20183;-48
2023/06/04 07:23:57;;;;;;;4.60;3.43;;;21.90;1.00;;;;;;5116504;28;20182;-48
2023/06/04 07:26:25;;;;;;;6.60;3.33;;;22.00;1.00;;;;;;5101004;28;20425;-49
2023/06/04 07:28:51;;;;;;;6.17;3.50;;;22.20;1.00;;;;;;5118739;28;20335;-48
2023/06/04 07:31:17;;;;;;;4.73;3.67;;;22.40;1.00;;;;;;5118542;28;20520;-48
2023/06/04 07:33:43;;;;;;;8.73;4.27;;;22.50;1.00;;;;;;5118096;28;20510;-49
2023/06/04 07:36:15;;;;;;;5.10;3.97;;;22.60;1.00;;;;;;5100586;28;20433;-46
2023/06/04 07:38:42;;;;;;;3.70;3.40;;;22.80;1.00;;;;;;5118025;28;20421;-48
2023/06/04 07:41:08;;;;;;;3.73;3.33;;;23.00;1.00;;;;;;5117199;28;20429;-48
2023/06/04 07:43:35;;;;;;;4.80;3.63;;;23.20;1.00;;;;;;5117390;28;20477;-46
2023/06/04 07:46:01;;;;;;;3.50;3.20;;;23.50;1.00;;;;;;5116758;28;20437;-48
2023/06/04 07:48:30;;;;;;;4.00;3.70;;;23.80;1.00;;;;;;5119066;28;20468;-47
2023/06/04 07:51:00;;;;;;;4.50;4.10;;;24.10;1.00;;;;;;5117869;28;20621;-47
2023/06/04 07:53:26;;;;;;;4.23;3.80;;;24.20;1.00;;;;;;5118940;28;20425;-51
2023/06/04 07:55:52;;;;;;;7.80;4.13;;;24.30;1.00;;;;;;5119350;28;20428;-47
2023/06/04 07:58:17;;;;;;;4.30;3.90;;;24.50;1.00;;;;;;5118552;28;20188;-47
2023/06/04 08:00:43;;;;;;;4.70;3.50;;;24.70;1.00;;;;;;5118674;28;20459;-48
2023/06/04 08:03:08;;;;;;;4.90;4.00;;;24.70;1.00;;;;;;5119193;28;20271;-48
2023/06/04 08:05:35;;;;;;;4.40;4.00;;;24.70;1.00;;;;;;5118783;28;20180;-47
2023/06/04 08:08:01;;;;;;;4.80;4.27;;;24.80;1.00;;;;;;5119463;28;20451;-47
2023/06/04 08:10:26;;;;;;;5.07;4.00;;;25.00;1.00;;;;;;5101476;28;20421;-52
2023/06/04 08:12:52;;;;;;;4.37;3.80;;;25.10;1.00;;;;;;5119377;28;20423;-49
2023/06/04 08:15:17;;;;;;;5.03;3.77;;;25.30;1.00;;;;;;5120161;28;20176;-47
2023/06/04 08:17:43;;;;;;;4.93;3.97;;;25.50;1.00;;;;;;5119356;28;20189;-49
2023/06/04 08:20:09;;;;;;;4.73;4.33;;;25.80;1.00;;;;;;5119339;28;20176;-50
2023/06/04 08:22:35;;;;;;;6.50;4.20;;;26.00;1.00;;;;;;5118740;28;20244;-50
2023/06/04 08:25:01;;;;;;;4.50;3.90;;;26.00;1.00;;;;;;5100545;28;20750;-51
2023/06/04 08:27:26;;;;;;;4.50;4.10;;;26.20;1.00;;;;;;5101475;28;20605;-49
2023/06/04 08:29:52;;;;;;;4.60;4.20;;;26.20;1.00;;;;;;5101072;28;20234;-48
2023/06/04 08:32:18;;;;;;;5.93;4.03;;;26.30;1.00;;;;;;5119230;28;20259;-48
2023/06/04 08:34:43;;;;;;;5.00;3.90;;;26.40;1.00;;;;;;5118847;28;20191;-50
2023/06/04 08:37:10;;;;;;;4.40;4.00;;;26.50;1.00;;;;;;5099808;28;20778;-49
2023/06/04 08:39:36;;;;;;;6.60;4.23;;;26.70;1.00;;;;;;5100265;28;20280;-49
2023/06/04 08:42:04;;;;;;;4.33;3.90;;;26.70;1.00;;;;;;5117994;28;20485;-49
2023/06/04 08:44:30;;;;;;;6.30;4.67;;;26.80;1.00;;;;;;5100586;28;20493;-49
2023/06/04 08:47:05;;;;;;;5.80;3.50;;;26.90;1.00;;;;;;5118690;28;20516;-49
2023/06/04 08:49:40;;;;;;;6.13;4.60;;;26.60;1.00;;;;;;5099744;28;20378;-48
2023/06/04 08:52:06;;;;;;;3.63;3.33;;;26.30;1.00;;;;;;5118109;28;20413;-48
2023/06/04 08:54:33;;;;;;;4.77;4.17;;;26.00;1.00;;;;;;5115499;28;20413;-50
2023/06/04 08:56:58;;;;;;;6.43;4.30;;;26.00;1.00;;;;;;5116759;28;20409;-52
2023/06/04 08:59:24;;;;;;;7.13;4.40;;;26.10;1.00;;;;;;5098550;28;20441;-52
2023/06/04 09:01:54;;;;;;;4.07;3.67;;;26.40;1.00;;;;;;5115570;28;20188;-49
2023/06/04 09:04:19;;;;;;;4.23;3.83;;;26.70;1.00;;;;;;5115530;28;20429;-48
2023/06/04 09:06:45;;;;;;;4.87;4.10;;;27.00;1.00;;;;;;5115193;28;20426;-49
2023/06/04 09:09:13;;;;;;;5.17;4.13;;;27.10;1.00;;;;;;5097234;28;20423;-54
2023/06/04 09:11:52;;;;;;;4.60;3.80;;;27.20;1.00;;;;;;5097300;28;20437;-52
2023/06/04 09:14:18;;;;;;;5.30;4.30;;;27.40;1.00;;;;;;5113858;28;20429;-48
2023/06/04 09:16:51;;;;;;;7.03;4.40;;;27.00;1.00;;;;;;5115506;28;20422;-49
2023/06/04 09:19:17;;;;;;;7.10;4.00;;;26.60;1.00;;;;;;5115033;28;20263;-55
2023/06/04 09:21:54;;;;;;;6.50;4.30;;;26.60;1.00;;;;;;5116369;28;20669;-53
2023/06/04 09:24:21;;;;;;;5.17;4.67;;;26.90;1.00;;;;;;5117381;28;20405;-53
2023/06/04 09:26:46;;;;;;;5.10;4.60;;;27.30;1.00;;;;;;5117150;28;20526;-54
2023/06/04 09:29:13;;;;;;;6.33;4.90;;;27.40;1.00;;;;;;5116346;28;20902;-46
2023/06/04 09:31:39;;;;;;;7.40;4.83;;;27.40;1.00;;;;;;5116723;28;20390;-53
2023/06/04 09:34:06;;;;;;;9.13;7.03;;;27.00;1.00;;;;;;5115455;28;20436;-51
2023/06/04 09:36:35;;;;;;;5.30;4.80;;;27.00;1.00;;;;;;5114912;28;20467;-54
2023/06/04 09:39:02;;;;;;;5.80;4.97;;;27.30;1.00;;;;;;5095998;28;20428;-48
2023/06/04 09:41:28;;;;;;;8.50;4.40;;;27.50;1.00;;;;;;5096704;28;20846;-53
2023/06/04 09:44:05;;;;;;;4.73;4.33;;;27.90;1.00;;;;;;5115002;28;20461;-51
2023/06/04 09:46:31;;;;;;;5.10;4.60;;;28.30;1.00;;;;;;5112324;28;20187;-50
2023/06/04 09:49:04;;;;;;;6.37;4.93;;;28.60;1.00;;;;;;5113527;28;20477;-53
2023/06/04 09:51:30;;;;;;;5.80;4.30;;;28.60;1.00;;;;;;5094479;28;20180;-48
2023/06/04 09:53:58;;;;;;;6.17;4.97;;;28.70;1.00;;;;;;5114653;28;20380;-47
2023/06/04 09:56:24;;;;;;;4.57;4.17;;;28.70;1.00;;;;;;5113545;28;20840;-46
2023/06/04 09:58:50;;;;;;;5.07;4.67;;;28.90;1.00;;;;;;5095865;28;20426;-48
2023/06/04 10:01:15;;;;;;;7.80;5.00;;;29.10;1.00;;;;;;5098221;28;20790;-53
2023/06/04 10:03:47;;;;;;;6.30;5.70;;;28.90;1.00;;;;;;5115450;28;20441;-48
2023/06/04 10:06:16;;;;;;;5.20;4.70;;;28.50;1.00;;;;;;5120523;27;20210;-54
2023/06/04 10:08:42;;;;;;;5.03;4.63;;;28.20;1.00;;;;;;5119128;27;20469;-46
2023/06/04 10:11:09;;;;;;;5.03;4.63;;;28.40;1.00;;;;;;5120031;27;20427;-46
2023/06/04 10:13:42;;;;;;;6.00;5.40;;;28.80;1.00;;;;;;5118900;27;20425;-48
2023/06/04 10:16:08;;;;;;;5.53;4.93;;;29.20;1.00;;;;;;5118173;28;20425;-47
2023/06/04 10:18:34;;;;;;;5.97;5.27;;;29.50;1.00;;;;;;5119117;27;20423;-55
2023/06/04 10:21:00;;;;;;;5.33;4.87;;;29.90;1.00;;;;;;5137127;27;20552;-55
2023/06/04 10:23:26;;;;;;;5.90;5.30;;;30.20;1.00;;;;;;5118967;27;20467;-47
2023/06/04 10:25:52;;;;;;;5.53;5.03;;;30.50;1.00;;;;;;5118524;28;20468;-55
2023/06/04 10:28:22;;;;;;;6.37;5.80;;;30.90;1.00;;;;;;5135945;28;20221;-48
2023/06/04 10:30:50;;;;;;;9.47;5.63;;;31.30;1.00;;;;;;5136984;28;20427;-49
2023/06/04 10:33:25;;;;;;;9.83;5.53;;;31.50;1.00;;;;;;5135503;28;20397;-49
2023/06/04 10:35:54;;;;;;;5.63;5.13;;;31.30;1.00;;;;;;5136113;28;20416;-46
2023/06/04 10:38:22;;;;;;;5.53;5.03;;;31.40;1.00;;;;;;5134958;28;20428;-47
2023/06/04 10:40:47;;;;;;;5.97;4.90;;;31.50;1.00;;;;;;5135531;28;20456;-49
2023/06/04 10:43:15;;;;;;;7.73;5.97;;;31.60;1.00;;;;;;5134767;28;20584;-47
2023/06/04 10:45:42;;;;;;;5.80;5.30;;;31.70;1.00;;;;;;5134272;28;20564;-47
2023/06/04 10:48:09;;;;;;;6.70;6.10;;;31.60;1.00;;;;;;5116146;28;20464;-51
2023/06/04 10:50:50;;;;;;;6.63;5.83;;;31.10;1.00;;;;;;5115407;28;20995;-51
2023/06/04 10:53:18;;;;;;;6.43;5.90;;;31.10;1.00;;;;;;5135420;28;20399;-50
2023/06/04 10:55:45;;;;;;;5.90;5.40;;;31.30;1.00;;;;;;5135012;28;20523;-48
2023/06/04 10:58:10;;;;;;;6.73;6.13;;;31.60;1.00;;;;;;5134951;27;20432;-53
2023/06/04 11:00:45;;;;;;;6.57;5.83;;;32.10;1.00;;;;;;5138559;27;20420;-46
2023/06/04 11:03:12;;;;;;;6.90;6.30;;;32.20;1.00;;;;;;5121684;27;20186;-51
2023/06/04 11:05:44;;;;;;;5.77;5.27;;;32.20;1.00;;;;;;5138715;27;20557;-50
2023/06/04 11:08:11;;;;;;;6.30;5.47;;;32.00;1.00;;;;;;5139939;27;20928;-52
2023/06/04 11:10:45;;;;;;;6.53;6.00;;;31.60;1.00;;;;;;5139694;27;20407;-52
2023/06/04 11:13:13;;;;;;;10.40;6.03;;;30.80;1.00;;;;;;5137822;27;20468;-47
2023/06/04 11:15:41;;;;;;;6.23;5.63;;;30.00;1.00;;;;;;5138542;27;20818;-54
2023/06/04 11:18:06;;;;;;;11.60;5.50;;;30.00;1.00;;;;;;5104096;27;20417;-52
2023/06/04 11:20:32;;;;;;;6.50;5.80;;;30.30;1.00;;;;;;5120959;27;20443;-49
2023/06/04 11:23:03;;;;;;;7.57;6.60;;;30.70;1.00;;;;;;5121639;27;20217;-48
2023/06/04 11:25:30;;;;;;;6.03;5.00;;;30.60;1.00;;;;;;5122241;27;20539;-56
2023/06/04 11:27:57;;;;;;;8.70;5.87;;;30.90;1.00;;;;;;5121460;27;20509;-46
2023/06/04 11:30:23;;;;;;;5.90;5.40;;;31.40;1.00;;;;;;5140013;27;20423;-54
2023/06/04 11:32:49;;;;;;;5.67;5.23;;;32.00;1.00;;;;;;5140845;27;20403;-49
2023/06/04 11:35:14;;;;;;;5.93;5.43;;;32.80;1.00;;;;;;5139172;27;20456;-48
2023/06/04 11:37:40;;;;;;;6.93;6.27;;;33.40;1.00;;;;;;5120611;27;20427;-47
2023/06/04 11:40:16;;;;;;;6.07;5.57;;;33.80;1.00;;;;;;5139431;27;20465;-50
2023/06/04 11:42:43;;;;;;;6.33;5.77;;;34.10;1.00;;;;;;5138255;27;20554;-50
2023/06/04 11:45:11;;;;;;;6.43;5.80;;;34.50;1.00;;;;;;5136354;27;20407;-53
2023/06/04 11:47:37;;;;;;;6.23;5.70;;;34.70;1.00;;;;;;5091206;27;20446;-48
2023/06/04 11:50:04;;;;;;;8.10;5.80;;;34.90;1.00;;;;;;5103418;28;20480;-51
2023/06/04 11:52:31;;;;;;;5.97;5.57;;;34.90;1.00;;;;;;5100776;28;20195;-54
2023/06/04 11:54:57;;;;;;;7.33;6.73;;;34.90;1.00;;;;;;5118203;27;20411;-51
2023/06/04 11:57:22;;;;;;;6.30;5.80;;;34.70;1.00;;;;;;5108732;27;20777;-48
2023/06/04 11:59:48;;;;;;;7.27;6.67;;;33.90;1.00;;;;;;5120285;27;20227;-47
2023/06/04 12:02:14;;;;;;;6.80;6.20;;;33.00;1.00;;;;;;5120263;27;20198;-47
2023/06/04 12:04:40;;;;;;;6.67;6.17;;;32.90;1.00;;;;;;5120796;27;20588;-49
2023/06/04 12:07:08;;;;;;;6.47;5.87;;;32.90;1.00;;;;;;5138612;27;20407;-48
2023/06/04 12:09:35;;;;;;;6.50;5.90;;;32.90;1.00;;;;;;5138514;27;20207;-51
2023/06/04 12:12:02;;;;;;;6.30;5.70;;;33.20;1.00;;;;;;5121830;27;20409;-52
2023/06/04 12:14:28;;;;;;;6.00;5.50;;;33.70;1.00;;;;;;5137001;27;20419;-51
2023/06/04 12:16:58;;;;;;;5.80;5.30;;;33.90;1.00;;;;;;5138678;27;20439;-53
2023/06/04 12:19:25;;;;;;;6.30;5.80;;;34.20;1.00;;;;;;5119599;27;20731;-51
2023/06/04 12:22:04;;;;;;;5.83;5.33;;;34.30;1.00;;;;;;5102122;27;20492;-51
2023/06/04 12:24:35;;;;;;;5.87;5.37;;;33.80;1.00;;;;;;5139342;27;20392;-51
2023/06/04 12:27:06;;;;;;;5.93;5.43;;;33.40;1.00;;;;;;5139081;27;20482;-49
2023/06/04 12:29:32;;;;;;;5.43;4.97;;;33.30;1.00;;;;;;5136401;27;20463;-51
2023/06/04 12:32:07;;;;;;;6.73;6.10;;;33.60;1.00;;;;;;5136269;27;20807;-46
2023/06/04 12:34:34;;;;;;;6.00;5.50;;;34.10;1.00;;;;;;5139313;27;20431;-48
2023/06/04 12:36:59;;;;;;;6.33;5.80;;;34.30;1.00;;;;;;5138664;27;20432;-47
2023/06/04 12:39:25;;;;;;;6.20;5.70;;;34.50;1.00;;;;;;5138522;27;20524;-49
2023/06/04 12:41:51;;;;;;;6.47;5.60;;;34.40;1.00;;;;;;5138424;27;20342;-50
2023/06/04 12:44:16;;;;;;;5.73;5.23;;;34.10;1.00;;;;;;5138814;27;20193;-51
2023/06/04 12:46:42;;;;;;;5.53;5.13;;;34.00;1.00;;;;;;5120540;27;20411;-48
2023/06/04 12:49:08;;;;;;;6.20;5.63;;;34.30;1.00;;;;;;5101984;27;20229;-49
2023/06/04 12:51:33;;;;;;;11.23;8.63;;;34.30;1.00;;;;;;5137897;27;20445;-48
2023/06/04 12:53:59;;;;;;;6.60;6.00;;;34.40;1.00;;;;;;5138717;27;20255;-53